📊 Raw Sensor Data

Showing records 33651 to 33675 of 84,790 total

ID Distance (ft) Battery V Battery A Int Temp (°F) Int Humid (%) Ext Temp (°F) Solar V RSSI SNR Time Stamp
51152 13.9 3.97 7 96 48 86 5.10 -74 8 09/05/2025 05:30 PM
51151 15.0 3.97 7 97 47 88 5.10 -74 7 09/05/2025 05:15 PM
51150 15.0 3.97 0 99 46 87 5.10 -73 7 09/05/2025 05:00 PM
51149 15.0 4.12 7 100 45 90 5.10 -73 7 09/05/2025 04:45 PM
51148 15.0 3.97 0 101 44 88 5.10 -75 8 09/05/2025 04:30 PM
51147 15.1 3.97 7 101 43 89 5.10 -76 9 09/05/2025 04:15 PM
51146 15.0 3.97 0 100 43 88 5.10 -75 8 09/05/2025 04:00 PM
51145 14.8 3.97 0 100 42 88 5.10 -76 8 09/05/2025 03:45 PM
51144 15.0 3.97 0 99 42 90 5.10 -75 8 09/05/2025 03:30 PM
51143 15.0 3.97 0 97 42 85 5.10 -75 7 09/05/2025 03:15 PM
51142 15.0 3.96 7 95 42 84 5.10 -77 8 09/05/2025 03:00 PM
51141 15.0 3.97 7 97 41 84 5.10 -75 7 09/05/2025 02:45 PM
51140 15.0 4.13 7 96 40 87 5.10 -76 7 09/05/2025 02:30 PM
51139 15.0 3.96 7 93 41 83 5.10 -75 8 09/05/2025 02:15 PM
51138 14.9 3.96 7 92 42 79 5.10 -74 8 09/05/2025 02:00 PM
51137 14.9 3.96 0 92 41 80 5.10 -74 8 09/05/2025 01:45 PM
51136 15.0 3.96 5 92 41 79 5.10 -75 8 09/05/2025 01:30 PM
51135 15.0 3.96 5 92 40 83 5.20 -75 8 09/05/2025 01:15 PM
51134 15.0 3.96 7 89 41 79 5.10 -74 8 09/05/2025 01:00 PM
51133 15.0 3.96 7 89 40 80 5.10 -74 7 09/05/2025 12:45 PM
51132 15.0 4.03 7 88 40 80 5.10 -75 8 09/05/2025 12:30 PM
51131 15.1 3.96 7 86 41 77 5.10 -75 8 09/05/2025 12:15 PM
51130 15.0 3.99 7 85 40 79 5.10 -75 7 09/05/2025 12:00 PM
51129 15.1 3.96 7 83 40 81 5.10 -75 7 09/05/2025 11:45 AM
51128 15.1 3.96 0 81 41 80 5.10 -75 8 09/05/2025 11:30 AM